Terminal Aerodrome Forecast
Issued by NWS Austin/San Antonio, TX

Home | Current Version | Previous Version | Text Only | Print | Product List | Glossary On
Versions: 1 2 3 4 5 6 7 8 9 10 11 12 13 14 15 16 17 18 19 20 21 22 23 24 25 26 27 28 29 30 31 32 33 34 35 36
000
FTUS44 KEWX 281320 AAB
TAFSAT
TAF AMD
KSAT 281320Z 2813/0118 16004KT 2SM BR OVC008
     FM281800 18010KT P6SM OVC015
     FM282100 18010KT P6SM SCT040
     FM010900 32010KT P6SM OVC040
     FM011500 01015KT P6SM BKN050=

USA.gov is the U.S. government's official web portal to all federal, state and local government web resources and services.